createdAt,value
2023-01-08T00:00:57.483Z,6.30
2023-01-08T00:03:26.139Z,6.30
2023-01-08T00:05:55.519Z,6.30
2023-01-08T00:08:23.401Z,6.30
2023-01-08T00:10:55.453Z,6.30
2023-01-08T00:13:23.749Z,6.30
2023-01-08T00:15:51.884Z,6.30
2023-01-08T00:18:20.254Z,6.30
2023-01-08T00:20:48.975Z,6.40
2023-01-08T00:23:20.632Z,6.30
2023-01-08T00:25:48.584Z,6.30
2023-01-08T00:28:17.041Z,6.30
2023-01-08T00:30:45.075Z,6.20
2023-01-08T00:33:13.037Z,6.20
2023-01-08T00:35:41.241Z,6.20
2023-01-08T00:38:09.552Z,6.20
2023-01-08T00:40:40.425Z,6.20
2023-01-08T00:43:08.664Z,6.20
2023-01-08T00:45:36.876Z,6.20
2023-01-08T00:48:04.932Z,6.20
2023-01-08T00:50:32.869Z,6.20
2023-01-08T00:53:00.872Z,6.10
2023-01-08T00:55:28.797Z,6.20
2023-01-08T00:57:58.303Z,6.10
2023-01-08T01:00:26.427Z,6.10
2023-01-08T01:02:54.376Z,6.10
2023-01-08T01:05:22.359Z,6.10
2023-01-08T01:07:50.269Z,6.10
2023-01-08T01:10:19.485Z,6.10
2023-01-08T01:12:47.449Z,6.10
2023-01-08T01:15:19.137Z,6.10
2023-01-08T01:17:47.798Z,6.10
2023-01-08T01:20:17.505Z,6.10
2023-01-08T01:22:45.515Z,6.00
2023-01-08T01:25:13.452Z,6.00
2023-01-08T01:27:41.432Z,6.00
2023-01-08T01:30:11.450Z,6.00
2023-01-08T01:32:40.743Z,6.00
2023-01-08T01:35:09.419Z,5.90
2023-01-08T01:37:37.590Z,5.90
2023-01-08T01:40:06.574Z,5.90
2023-01-08T01:42:44.338Z,5.90
2023-01-08T01:45:19.149Z,5.90
2023-01-08T01:47:50.871Z,5.90
2023-01-08T01:50:23.210Z,5.90
2023-01-08T01:52:56.965Z,5.80
2023-01-08T01:55:27.018Z,5.80
2023-01-08T01:58:02.210Z,5.80
2023-01-08T02:00:31.249Z,5.80
2023-01-08T02:03:01.268Z,5.80
2023-01-08T02:05:35.049Z,5.80
2023-01-08T02:08:08.362Z,5.70
2023-01-08T02:10:43.548Z,5.70
2023-01-08T02:13:14.796Z,5.70
2023-01-08T02:15:49.025Z,5.70
2023-01-08T02:18:21.181Z,5.70
2023-01-08T02:20:55.536Z,5.60
2023-01-08T02:23:31.401Z,5.60
2023-01-08T02:26:13.404Z,5.50
2023-01-08T02:28:44.873Z,5.50
2023-01-08T02:31:14.194Z,5.50
2023-01-08T02:33:42.413Z,5.50
2023-01-08T02:36:29.274Z,5.40
2023-01-08T02:39:29.176Z,5.50
2023-01-08T02:42:06.617Z,5.50
2023-01-08T02:44:52.277Z,5.40
2023-01-08T02:47:27.202Z,5.40
2023-01-08T02:50:07.861Z,5.40
2023-01-08T02:52:42.127Z,5.40
2023-01-08T02:55:11.962Z,5.50
2023-01-08T02:57:41.814Z,5.40
2023-01-08T03:00:11.224Z,5.40
2023-01-08T03:02:42.561Z,5.40
2023-01-08T03:05:17.855Z,5.40
2023-01-08T03:07:45.879Z,5.40
2023-01-08T03:10:14.110Z,5.40
2023-01-08T03:12:54.465Z,5.40
2023-01-08T03:15:27.833Z,5.30
2023-01-08T03:17:59.875Z,5.30
2023-01-08T03:20:28.471Z,5.30
2023-01-08T03:22:59.737Z,5.20
2023-01-08T03:25:30.343Z,5.20
2023-01-08T03:28:04.727Z,5.10
2023-01-08T03:30:33.249Z,5.10
2023-01-08T03:33:03.656Z,5.10
2023-01-08T03:35:32.825Z,5.10
2023-01-08T03:38:07.406Z,5.10
2023-01-08T03:40:40.071Z,5.00
2023-01-08T03:43:09.377Z,5.00
2023-01-08T03:45:39.890Z,5.00
2023-01-08T03:48:09.092Z,5.00
2023-01-08T03:50:37.987Z,5.00
2023-01-08T03:53:06.020Z,4.90
2023-01-08T03:55:33.908Z,4.90
2023-01-08T03:58:01.838Z,4.90
2023-01-08T04:00:31.471Z,4.80
2023-01-08T04:02:59.453Z,4.80
2023-01-08T04:05:27.400Z,4.80
2023-01-08T04:07:56.445Z,4.80
2023-01-08T04:10:24.622Z,4.80
2023-01-08T04:12:52.789Z,4.80
2023-01-08T04:15:21.878Z,4.80
2023-01-08T04:17:51.143Z,4.70
2023-01-08T04:20:19.163Z,4.70
2023-01-08T04:22:47.071Z,4.70
2023-01-08T04:25:14.991Z,4.70
2023-01-08T04:27:42.969Z,4.70
2023-01-08T04:30:12.037Z,4.70
2023-01-08T04:32:39.964Z,4.80
2023-01-08T04:35:10.012Z,4.80
2023-01-08T04:37:37.940Z,4.90
2023-01-08T04:40:07.097Z,4.90
2023-01-08T04:42:35.010Z,4.90
2023-01-08T04:45:02.938Z,4.90
2023-01-08T04:47:30.867Z,4.90
2023-01-08T04:49:58.789Z,4.90
2023-01-08T04:52:29.302Z,4.90
2023-01-08T04:54:57.244Z,4.80
2023-01-08T04:57:25.235Z,4.90
2023-01-08T04:59:53.196Z,4.90
2023-01-08T05:02:21.390Z,4.90
2023-01-08T05:04:49.607Z,4.90
2023-01-08T05:07:17.561Z,4.90
2023-01-08T05:09:46.805Z,4.90
2023-01-08T05:12:14.718Z,4.90
2023-01-08T05:14:42.627Z,4.90
2023-01-08T05:17:10.522Z,4.90
2023-01-08T05:19:38.584Z,4.80
2023-01-08T05:22:06.596Z,4.80
2023-01-08T05:24:34.514Z,4.80
2023-01-08T05:27:03.837Z,4.80
2023-01-08T05:29:31.742Z,4.80
2023-01-08T05:31:59.628Z,4.80
2023-01-08T05:34:27.710Z,4.80
2023-01-08T05:36:55.595Z,4.80
2023-01-08T05:39:23.538Z,4.80
2023-01-08T05:41:51.451Z,4.80
2023-01-08T05:44:20.703Z,4.80
2023-01-08T05:46:48.665Z,4.80
2023-01-08T05:49:17.043Z,4.70
2023-01-08T05:51:45.097Z,4.70
2023-01-08T05:54:13.085Z,4.70
2023-01-08T05:56:41.157Z,4.70
2023-01-08T05:59:09.062Z,4.70
2023-01-08T06:01:38.459Z,4.70
2023-01-08T06:04:06.743Z,4.70
2023-01-08T06:06:34.718Z,4.70
2023-01-08T06:09:02.705Z,4.60
2023-01-08T06:11:30.616Z,4.60
2023-01-08T06:13:58.519Z,4.60
2023-01-08T06:16:26.463Z,4.60
2023-01-08T06:18:55.769Z,4.60
2023-01-08T06:21:23.731Z,4.60
2023-01-08T06:23:51.666Z,4.50
2023-01-08T06:26:19.588Z,4.50
2023-01-08T06:28:47.551Z,4.50
2023-01-08T06:31:15.562Z,4.50
2023-01-08T06:33:43.536Z,4.40
2023-01-08T06:36:13.133Z,4.40
2023-01-08T06:38:41.098Z,4.50
2023-01-08T06:41:11.004Z,4.50
2023-01-08T06:43:39.588Z,4.50
2023-01-08T06:46:08.867Z,4.40
2023-01-08T06:48:37.432Z,4.50
2023-01-08T06:51:05.916Z,4.50
2023-01-08T06:53:35.516Z,4.40
2023-01-08T06:56:04.683Z,4.50
2023-01-08T06:58:32.850Z,4.40
2023-01-08T07:01:00.784Z,4.40
2023-01-08T07:03:28.825Z,4.40
2023-01-08T07:05:57.279Z,4.40
2023-01-08T07:08:27.664Z,4.40
2023-01-08T07:10:56.912Z,4.40
2023-01-08T07:13:25.014Z,4.40
2023-01-08T07:15:52.964Z,4.50
2023-01-08T07:18:20.863Z,4.40
2023-01-08T07:20:49.710Z,4.50
2023-01-08T07:23:17.679Z,4.40
2023-01-08T07:25:45.901Z,4.40
2023-01-08T07:28:15.197Z,4.40
2023-01-08T07:30:43.262Z,4.40
2023-01-08T07:33:11.223Z,4.50
2023-01-08T07:35:39.277Z,4.50
2023-01-08T07:38:07.276Z,4.50
2023-01-08T07:40:35.209Z,4.50
2023-01-08T07:43:05.136Z,4.50
2023-01-08T07:45:34.388Z,4.50
2023-01-08T07:48:02.306Z,4.50
2023-01-08T07:50:30.339Z,4.50
2023-01-08T07:52:59.546Z,4.50
2023-01-08T07:55:28.449Z,4.60
2023-01-08T07:57:56.802Z,4.60
2023-01-08T08:00:24.735Z,4.60
2023-01-08T08:02:54.194Z,4.60
2023-01-08T08:05:22.157Z,4.60
2023-01-08T08:07:50.083Z,4.60
2023-01-08T08:10:18.164Z,4.60
2023-01-08T08:12:46.319Z,4.60
2023-01-08T08:15:14.260Z,4.60
2023-01-08T08:17:46.124Z,4.60
2023-01-08T08:20:15.688Z,4.60
2023-01-08T08:22:43.770Z,4.60
2023-01-08T08:25:12.029Z,4.60
2023-01-08T08:27:39.907Z,4.60
2023-01-08T08:30:09.414Z,4.60
2023-01-08T08:32:37.392Z,4.60
2023-01-08T08:35:05.942Z,4.60
2023-01-08T08:37:35.412Z,4.70
2023-01-08T08:40:03.309Z,4.70
2023-01-08T08:42:31.201Z,4.70
2023-01-08T08:44:59.095Z,4.70
2023-01-08T08:47:27.003Z,4.70
2023-01-08T08:49:54.895Z,4.70
2023-01-08T08:52:22.811Z,4.70
2023-01-08T08:54:52.312Z,4.70
2023-01-08T08:57:20.513Z,4.70
2023-01-08T08:59:48.425Z,4.70
2023-01-08T09:02:16.520Z,4.70
2023-01-08T09:04:44.644Z,4.70
2023-01-08T09:07:12.580Z,4.70
2023-01-08T09:09:40.504Z,4.80
2023-01-08T09:12:10.784Z,4.80
2023-01-08T09:14:38.716Z,4.80
2023-01-08T09:17:06.647Z,4.80
2023-01-08T09:19:34.554Z,4.80
2023-01-08T09:22:02.988Z,4.80
2023-01-08T09:24:32.364Z,4.80
2023-01-08T09:27:00.643Z,4.80
2023-01-08T09:29:30.048Z,4.80
2023-01-08T09:32:00.484Z,4.90
2023-01-08T09:34:29.801Z,4.90
2023-01-08T09:36:58.276Z,4.90
2023-01-08T09:39:26.227Z,4.90
2023-01-08T09:41:55.014Z,4.90
2023-01-08T09:44:27.624Z,4.90
2023-01-08T09:46:57.697Z,4.90
2023-01-08T09:49:32.930Z,4.90
2023-01-08T09:52:00.994Z,4.90
2023-01-08T09:54:28.958Z,4.90
2023-01-08T09:56:59.101Z,4.90
2023-01-08T09:59:27.480Z,5.00
2023-01-08T10:01:57.219Z,5.00
2023-01-08T10:04:27.363Z,5.00
2023-01-08T10:06:58.015Z,5.00
2023-01-08T10:09:28.627Z,5.00
2023-01-08T10:11:59.705Z,5.00
2023-01-08T10:14:31.227Z,5.00
2023-01-08T10:17:04.377Z,5.00
2023-01-08T10:19:33.045Z,5.10
2023-01-08T10:22:01.149Z,5.10
2023-01-08T10:24:33.748Z,5.10
2023-01-08T10:27:10.178Z,5.10
2023-01-08T10:29:39.836Z,5.20
2023-01-08T10:32:14.831Z,5.20
2023-01-08T10:34:46.629Z,5.20
2023-01-08T10:37:24.727Z,5.10
2023-01-08T10:39:54.293Z,5.20
2023-01-08T10:42:25.194Z,5.20
2023-01-08T10:45:01.257Z,5.20
2023-01-08T10:47:34.696Z,5.20
2023-01-08T10:50:05.159Z,5.30
2023-01-08T10:52:36.396Z,5.30
2023-01-08T10:55:22.240Z,5.30
2023-01-08T10:57:56.316Z,5.30
2023-01-08T11:00:26.759Z,5.40
2023-01-08T11:02:57.398Z,5.40
2023-01-08T11:05:33.679Z,5.40
2023-01-08T11:08:03.844Z,5.40
2023-01-08T11:10:31.928Z,5.40
2023-01-08T11:13:04.277Z,5.50
2023-01-08T11:15:35.479Z,5.50
2023-01-08T11:18:20.010Z,5.50
2023-01-08T11:20:48.864Z,5.50
2023-01-08T11:23:20.065Z,5.50
2023-01-08T11:25:57.791Z,5.50
2023-01-08T11:28:32.888Z,5.50
2023-01-08T11:31:12.094Z,5.50
2023-01-08T11:33:43.167Z,5.50
2023-01-08T11:36:19.709Z,5.50
2023-01-08T11:38:47.607Z,5.60
2023-01-08T11:41:26.360Z,5.60
2023-01-08T11:44:08.414Z,5.60
2023-01-08T11:46:43.611Z,5.60
2023-01-08T11:49:36.675Z,5.60
2023-01-08T11:52:17.934Z,5.70
2023-01-08T11:55:19.378Z,5.70
2023-01-08T11:58:00.614Z,5.70
2023-01-08T12:00:47.240Z,5.70
2023-01-08T12:03:27.316Z,5.70
2023-01-08T12:06:14.056Z,5.70
2023-01-08T12:08:52.947Z,5.70
2023-01-08T12:11:27.656Z,5.70
2023-01-08T12:14:18.088Z,5.80
2023-01-08T12:17:02.575Z,5.80
2023-01-08T12:19:43.706Z,5.90
2023-01-08T12:22:28.400Z,5.90
2023-01-08T12:25:17.357Z,5.90
2023-01-08T12:27:57.305Z,5.90
2023-01-08T12:30:36.546Z,5.90
2023-01-08T12:33:08.512Z,6.00
2023-01-08T12:35:40.364Z,5.90
2023-01-08T12:38:14.028Z,6.00
2023-01-08T12:40:44.784Z,6.00
2023-01-08T12:43:24.995Z,5.90
2023-01-08T12:45:57.643Z,6.00
2023-01-08T12:48:28.679Z,6.10
2023-01-08T12:51:05.731Z,6.00
2023-01-08T12:53:49.759Z,6.10
2023-01-08T12:56:22.419Z,6.10
2023-01-08T12:59:04.951Z,6.10
2023-01-08T13:01:42.654Z,6.10
2023-01-08T13:04:11.367Z,6.10
2023-01-08T13:06:50.211Z,6.10
2023-01-08T13:09:24.691Z,6.10
2023-01-08T13:11:54.974Z,6.10
2023-01-08T13:14:24.108Z,6.10
2023-01-08T13:17:05.002Z,6.10
2023-01-08T13:19:40.772Z,6.10
2023-01-08T13:22:25.045Z,6.10
2023-01-08T13:25:09.754Z,6.10
2023-01-08T13:27:37.725Z,6.10
2023-01-08T13:30:50.024Z,6.10
2023-01-08T13:33:36.850Z,6.10
2023-01-08T13:36:29.168Z,6.10
2023-01-08T13:39:06.752Z,6.10
2023-01-08T13:41:37.212Z,6.10
2023-01-08T13:44:07.045Z,6.10
2023-01-08T13:46:40.895Z,6.10
2023-01-08T13:49:10.773Z,6.10
2023-01-08T13:51:44.206Z,6.20
2023-01-08T13:54:23.122Z,6.20
2023-01-08T13:57:02.342Z,6.20
2023-01-08T13:59:37.861Z,6.20
2023-01-08T14:02:21.389Z,6.20
2023-01-08T14:04:50.605Z,6.20
2023-01-08T14:07:18.985Z,6.20
2023-01-08T14:09:46.904Z,6.20
2023-01-08T14:12:20.434Z,6.20
2023-01-08T14:14:51.908Z,6.20
2023-01-08T14:17:22.512Z,6.20
2023-01-08T14:19:50.751Z,6.20
2023-01-08T14:22:21.100Z,6.20
2023-01-08T14:24:55.678Z,6.20
2023-01-08T14:27:27.651Z,6.20
2023-01-08T14:29:56.186Z,6.20
2023-01-08T14:32:26.252Z,6.20
2023-01-08T14:34:55.618Z,6.20
2023-01-08T14:37:23.748Z,6.20
2023-01-08T14:39:54.745Z,6.20
2023-01-08T14:42:44.315Z,6.20
2023-01-08T14:45:20.785Z,6.20
2023-01-08T14:47:50.316Z,6.20
2023-01-08T14:50:21.228Z,6.20
2023-01-08T14:52:50.225Z,6.20
2023-01-08T14:55:20.866Z,6.20
2023-01-08T14:57:52.720Z,6.20
2023-01-08T15:00:24.531Z,6.20
2023-01-08T15:02:52.611Z,6.20
2023-01-08T15:05:26.932Z,6.20
2023-01-08T15:07:59.077Z,6.20
2023-01-08T15:10:42.063Z,6.20
2023-01-08T15:13:23.662Z,6.20
2023-01-08T15:15:58.002Z,6.20
2023-01-08T15:18:26.558Z,6.20
2023-01-08T15:20:55.579Z,6.20
2023-01-08T15:23:41.764Z,6.20
2023-01-08T15:26:15.573Z,6.20
2023-01-08T15:28:52.595Z,6.20
2023-01-08T15:31:28.475Z,6.20
2023-01-08T15:33:56.672Z,6.30
2023-01-08T15:36:24.951Z,6.20
2023-01-08T15:38:53.227Z,6.20
2023-01-08T15:41:37.730Z,6.20
2023-01-08T15:44:07.451Z,6.30
2023-01-08T15:46:35.455Z,6.20
2023-01-08T15:49:03.429Z,6.20
2023-01-08T15:51:34.298Z,6.20
2023-01-08T15:54:03.103Z,6.20
2023-01-08T15:56:31.068Z,6.20
2023-01-08T15:58:59.125Z,6.20
2023-01-08T16:01:29.397Z,6.20
2023-01-08T16:03:57.456Z,6.20
2023-01-08T16:06:25.766Z,6.20
2023-01-08T16:08:53.834Z,6.20
2023-01-08T16:11:21.789Z,6.10
2023-01-08T16:13:49.723Z,6.20
2023-01-08T16:16:18.439Z,6.20
2023-01-08T16:18:47.816Z,6.20
2023-01-08T16:21:15.773Z,6.20
2023-01-08T16:23:43.756Z,6.20
2023-01-08T16:26:13.542Z,6.20
2023-01-08T16:28:41.816Z,6.20
2023-01-08T16:31:10.421Z,6.20
2023-01-08T16:33:38.996Z,6.20
2023-01-08T16:36:10.018Z,6.10
2023-01-08T16:38:38.265Z,6.10
2023-01-08T16:41:06.713Z,6.10
2023-01-08T16:43:40.592Z,6.10
2023-01-08T16:46:13.035Z,6.10
2023-01-08T16:48:41.626Z,6.10
2023-01-08T16:51:11.820Z,6.10
2023-01-08T16:53:40.205Z,6.10
2023-01-08T16:56:09.518Z,6.10
2023-01-08T16:58:38.300Z,6.10
2023-01-08T17:01:09.714Z,6.10
2023-01-08T17:03:38.264Z,6.10
2023-01-08T17:06:06.698Z,6.10
2023-01-08T17:08:39.940Z,6.10
2023-01-08T17:11:09.539Z,6.10
2023-01-08T17:13:37.604Z,6.10
2023-01-08T17:16:06.499Z,6.10
2023-01-08T17:18:34.576Z,6.10
2023-01-08T17:21:03.039Z,6.10
2023-01-08T17:23:31.237Z,6.10
2023-01-08T17:26:04.088Z,6.10
2023-01-08T17:28:32.517Z,6.00
2023-01-08T17:31:03.912Z,6.10
2023-01-08T17:33:32.841Z,6.10
2023-01-08T17:36:00.757Z,6.00
2023-01-08T17:38:29.005Z,6.00
2023-01-08T17:41:03.097Z,6.00
2023-01-08T17:43:35.203Z,6.10
2023-01-08T17:46:04.366Z,6.10
2023-01-08T17:48:32.325Z,6.00
2023-01-08T17:51:00.976Z,6.00
2023-01-08T17:53:30.186Z,6.00
2023-01-08T17:56:00.596Z,6.00
2023-01-08T17:58:29.877Z,6.00
2023-01-08T18:00:57.823Z,6.00
2023-01-08T18:03:25.747Z,6.00
2023-01-08T18:05:53.828Z,6.00
2023-01-08T18:08:21.765Z,6.00
2023-01-08T18:10:49.676Z,6.00
2023-01-08T18:13:17.608Z,6.00
2023-01-08T18:15:46.866Z,6.00
2023-01-08T18:18:14.774Z,6.00
2023-01-08T18:20:43.015Z,6.10
2023-01-08T18:23:10.923Z,6.00
2023-01-08T18:25:40.972Z,6.00
2023-01-08T18:28:08.924Z,6.00
2023-01-08T18:30:36.839Z,6.00
2023-01-08T18:33:06.129Z,6.00
2023-01-08T18:35:34.331Z,6.00
2023-01-08T18:38:02.254Z,6.00
2023-01-08T18:40:30.331Z,5.90
2023-01-08T18:42:58.243Z,5.90
2023-01-08T18:45:26.216Z,5.90
2023-01-08T18:47:54.561Z,5.90
2023-01-08T18:50:23.828Z,5.90
2023-01-08T18:52:51.898Z,5.90
2023-01-08T18:55:20.055Z,5.90
2023-01-08T18:57:49.017Z,5.90
2023-01-08T19:00:17.349Z,5.90
2023-01-08T19:02:45.394Z,5.90
2023-01-08T19:05:13.478Z,5.90
2023-01-08T19:07:42.756Z,5.90
2023-01-08T19:10:12.351Z,5.90
2023-01-08T19:12:40.434Z,5.90
2023-01-08T19:15:08.892Z,5.90
2023-01-08T19:17:37.705Z,5.90
2023-01-08T19:20:06.213Z,5.90
2023-01-08T19:22:34.224Z,5.90
2023-01-08T19:25:03.557Z,5.90
2023-01-08T19:27:31.536Z,5.90
2023-01-08T19:29:59.465Z,5.90
2023-01-08T19:32:27.459Z,5.90
2023-01-08T19:34:55.924Z,5.90
2023-01-08T19:37:23.894Z,5.90
2023-01-08T19:39:51.953Z,5.90
2023-01-08T19:42:38.815Z,5.90
2023-01-08T19:45:07.786Z,5.90
2023-01-08T19:47:35.723Z,5.90
2023-01-08T19:50:03.808Z,5.80
2023-01-08T19:52:31.756Z,5.80
2023-01-08T19:55:01.549Z,5.80
2023-01-08T19:57:30.887Z,5.80
2023-01-08T19:59:58.928Z,5.80
2023-01-08T20:02:27.020Z,5.80
2023-01-08T20:04:55.016Z,5.80
2023-01-08T20:07:23.102Z,5.70
2023-01-08T20:09:51.152Z,5.80
2023-01-08T20:12:19.088Z,5.80
2023-01-08T20:14:48.875Z,6.00
2023-01-08T20:17:18.467Z,5.70
2023-01-08T20:19:47.868Z,5.70
2023-01-08T20:22:17.388Z,5.70
2023-01-08T20:24:45.771Z,5.70
2023-01-08T20:27:13.761Z,5.70
2023-01-08T20:29:41.699Z,5.70
2023-01-08T20:32:10.979Z,5.70
2023-01-08T20:34:38.928Z,5.70
2023-01-08T20:37:07.530Z,5.70
2023-01-08T20:39:35.459Z,5.70
2023-01-08T20:42:05.150Z,5.70
2023-01-08T20:44:34.095Z,5.70
2023-01-08T20:47:02.266Z,5.60
2023-01-08T20:49:31.812Z,5.60
2023-01-08T20:52:00.665Z,5.60
2023-01-08T20:54:30.022Z,5.60
2023-01-08T20:56:58.367Z,5.60
2023-01-08T20:59:27.233Z,5.60
2023-01-08T21:01:57.077Z,5.60
2023-01-08T21:04:25.755Z,5.60
2023-01-08T21:06:55.197Z,5.60
2023-01-08T21:09:23.216Z,5.60
2023-01-08T21:11:51.895Z,5.60
2023-01-08T21:14:19.922Z,5.50
2023-01-08T21:16:48.155Z,5.50
2023-01-08T21:19:16.358Z,5.60
2023-01-08T21:21:45.715Z,5.60
2023-01-08T21:24:15.804Z,5.50
2023-01-08T21:26:46.192Z,5.50
2023-01-08T21:29:16.501Z,5.50
2023-01-08T21:31:44.898Z,5.50
2023-01-08T21:34:13.930Z,5.50
2023-01-08T21:36:41.951Z,5.50
2023-01-08T21:39:12.109Z,5.50
2023-01-08T21:41:58.575Z,5.50
2023-01-08T21:44:44.530Z,5.70
2023-01-08T21:47:14.557Z,5.50
2023-01-08T21:49:42.627Z,5.50
2023-01-08T21:52:27.978Z,5.50
2023-01-08T21:54:57.978Z,5.50
2023-01-08T21:57:28.202Z,5.50
2023-01-08T21:59:56.727Z,5.60
2023-01-08T22:02:25.469Z,5.50
2023-01-08T22:04:56.187Z,5.50
2023-01-08T22:07:24.136Z,5.50
2023-01-08T22:09:52.111Z,5.50
2023-01-08T22:12:20.623Z,5.50
2023-01-08T22:14:50.083Z,5.50
2023-01-08T22:17:18.089Z,5.50
2023-01-08T22:19:46.009Z,5.50
2023-01-08T22:22:14.092Z,5.50
2023-01-08T22:24:42.437Z,5.50
2023-01-08T22:27:11.005Z,5.50
2023-01-08T22:29:39.345Z,5.50
2023-01-08T22:32:08.651Z,6.60
2023-01-08T22:34:36.844Z,5.50
2023-01-08T22:37:04.871Z,5.50
2023-01-08T22:39:32.814Z,5.50
2023-01-08T22:42:01.162Z,5.40
2023-01-08T22:44:29.101Z,5.40
2023-01-08T22:46:59.133Z,5.40
2023-01-08T22:49:28.497Z,5.40
2023-01-08T22:51:56.470Z,5.40
2023-01-08T22:54:24.751Z,5.40
2023-01-08T22:56:53.041Z,5.40
2023-01-08T22:59:21.363Z,5.40
2023-01-08T23:01:50.138Z,5.40
2023-01-08T23:04:18.292Z,5.40
2023-01-08T23:06:47.650Z,5.40
2023-01-08T23:09:15.823Z,5.50
2023-01-08T23:11:43.788Z,5.50
2023-01-08T23:14:15.264Z,5.50
2023-01-08T23:16:44.001Z,5.50
2023-01-08T23:19:11.989Z,5.50
2023-01-08T23:21:40.277Z,5.50
2023-01-08T23:24:13.518Z,5.40
2023-01-08T23:26:42.143Z,5.50
2023-01-08T23:29:10.867Z,5.50
2023-01-08T23:31:38.912Z,5.50
2023-01-08T23:34:07.751Z,5.50
2023-01-08T23:36:35.822Z,5.50
2023-01-08T23:39:04.377Z,5.50
2023-01-08T23:41:35.168Z,5.50
2023-01-08T23:44:04.959Z,5.50
2023-01-08T23:46:33.056Z,5.50
2023-01-08T23:49:01.991Z,5.50
2023-01-08T23:51:30.036Z,5.60
2023-01-08T23:53:58.116Z,5.60
2023-01-08T23:56:26.377Z,5.50
2023-01-08T23:58:55.765Z,5.50
